createdAt,value
2019-02-10T00:00:55.573Z,23.70
2019-02-10T00:03:28.183Z,23.70
2019-02-10T00:06:00.450Z,23.70
2019-02-10T00:08:33.047Z,23.60
2019-02-10T00:11:05.399Z,23.60
2019-02-10T00:16:27.167Z,23.50
2019-02-10T00:18:59.557Z,23.50
2019-02-10T00:21:31.867Z,23.50
2019-02-10T00:24:04.215Z,23.50
2019-02-10T00:26:36.499Z,23.40
2019-02-10T00:29:09.005Z,23.40
2019-02-10T00:31:41.514Z,23.40
2019-02-10T00:34:13.822Z,23.40
2019-02-10T00:36:46.118Z,23.40
2019-02-10T00:39:18.332Z,23.30
2019-02-10T00:41:50.551Z,23.30
2019-02-10T00:44:22.812Z,23.30
2019-02-10T00:46:55.563Z,23.30
2019-02-10T00:49:30.346Z,23.30
2019-02-10T00:52:03.675Z,23.20
2019-02-10T00:54:40.968Z,23.20
2019-02-10T01:00:11.236Z,23.20
2019-02-10T01:02:52.780Z,23.10
2019-02-10T01:05:25.701Z,23.10
2019-02-10T01:07:59.110Z,23.00
2019-02-10T01:10:31.615Z,23.10
2019-02-10T01:13:03.914Z,23.90
2019-02-10T01:15:38.287Z,24.80
2019-02-10T01:18:11.320Z,25.50
2019-02-10T01:20:54.452Z,26.10
2019-02-10T01:23:26.895Z,26.60
2019-02-10T01:26:01.082Z,27.10
2019-02-10T01:28:34.917Z,27.30
2019-02-10T01:31:09.732Z,26.70
2019-02-10T01:33:44.310Z,26.00
2019-02-10T01:36:26.238Z,25.60
2019-02-10T01:38:58.634Z,25.20
2019-02-10T01:41:33.180Z,24.90
2019-02-10T01:44:05.566Z,24.70
2019-02-10T01:46:37.871Z,24.50
2019-02-10T01:49:10.896Z,24.30
2019-02-10T01:51:43.275Z,24.20
2019-02-10T01:54:16.491Z,24.10
2019-02-10T01:56:56.270Z,24.00
2019-02-10T01:59:32.270Z,24.00
2019-02-10T02:02:04.774Z,23.90
2019-02-10T02:04:37.016Z,23.80
2019-02-10T02:07:14.211Z,23.70
2019-02-10T02:09:47.415Z,23.70
2019-02-10T02:12:19.823Z,23.60
2019-02-10T02:14:52.545Z,23.60
2019-02-10T02:17:24.947Z,23.50
2019-02-10T02:19:57.341Z,23.40
2019-02-10T02:22:29.705Z,23.40
2019-02-10T02:25:02.431Z,23.30
2019-02-10T02:27:35.404Z,23.20
2019-02-10T02:30:28.484Z,23.20
2019-02-10T02:33:01.236Z,23.20
2019-02-10T02:35:35.090Z,23.10
2019-02-10T02:38:07.721Z,23.10
2019-02-10T02:40:42.159Z,23.00
2019-02-10T02:43:14.535Z,23.00
2019-02-10T02:45:47.747Z,23.00
2019-02-10T02:48:20.277Z,22.90
2019-02-10T02:50:53.122Z,22.90
2019-02-10T02:53:27.930Z,22.80
2019-02-10T02:56:02.658Z,22.80
2019-02-10T02:58:35.192Z,22.70
2019-02-10T03:01:07.867Z,22.70
2019-02-10T03:03:40.526Z,22.70
2019-02-10T03:06:12.718Z,22.60
2019-02-10T03:08:45.225Z,22.60
2019-02-10T03:11:17.606Z,22.60
2019-02-10T03:13:51.641Z,22.50
2019-02-10T03:16:24.109Z,22.50
2019-02-10T03:18:56.527Z,22.50
2019-02-10T03:21:28.883Z,22.50
2019-02-10T03:24:01.306Z,22.40
2019-02-10T03:26:33.777Z,22.40
2019-02-10T03:29:06.297Z,22.40
2019-02-10T03:31:38.772Z,22.30
2019-02-10T03:34:11.532Z,22.30
2019-02-10T03:36:44.936Z,22.30
2019-02-10T03:39:17.458Z,22.20
2019-02-10T03:41:49.819Z,22.20
2019-02-10T03:44:22.942Z,22.20
2019-02-10T03:46:55.337Z,22.20
2019-02-10T03:49:28.988Z,22.20
2019-02-10T03:52:01.411Z,22.20
2019-02-10T03:54:33.859Z,22.20
2019-02-10T03:57:06.993Z,22.10
2019-02-10T03:59:39.373Z,22.10
2019-02-10T04:02:12.011Z,22.10
2019-02-10T04:04:44.904Z,22.10
2019-02-10T04:07:17.270Z,22.00
2019-02-10T04:09:49.861Z,22.00
2019-02-10T04:12:22.258Z,22.00
2019-02-10T04:14:54.770Z,22.00
2019-02-10T04:17:27.544Z,21.90
2019-02-10T04:19:59.929Z,21.90
2019-02-10T04:22:32.382Z,21.90
2019-02-10T04:25:04.870Z,21.80
2019-02-10T04:27:37.364Z,21.80
2019-02-10T04:30:11.257Z,21.80
2019-02-10T04:32:43.762Z,21.80
2019-02-10T04:35:16.481Z,21.70
2019-02-10T04:37:48.993Z,21.80
2019-02-10T04:40:21.509Z,22.00
2019-02-10T04:42:53.961Z,22.70
2019-02-10T04:45:26.335Z,23.50
2019-02-10T04:47:58.707Z,24.20
2019-02-10T04:50:32.138Z,24.80
2019-02-10T04:53:04.589Z,25.20
2019-02-10T04:55:36.993Z,25.60
2019-02-10T04:58:09.638Z,26.00
2019-02-10T05:00:42.039Z,26.40
2019-02-10T05:03:14.386Z,26.70
2019-02-10T05:05:46.954Z,26.90
2019-02-10T05:08:19.307Z,26.20
2019-02-10T05:10:51.711Z,25.60
2019-02-10T05:13:24.081Z,25.10
2019-02-10T05:15:56.483Z,24.70
2019-02-10T05:18:28.783Z,24.40
2019-02-10T05:21:01.210Z,24.10
2019-02-10T05:23:33.386Z,23.90
2019-02-10T05:26:05.739Z,23.80
2019-02-10T05:28:37.973Z,23.70
2019-02-10T05:31:10.202Z,23.70
2019-02-10T05:33:42.477Z,23.60
2019-02-10T05:36:14.738Z,23.50
2019-02-10T05:38:46.967Z,23.40
2019-02-10T05:41:19.228Z,23.40
2019-02-10T05:43:51.436Z,23.30
2019-02-10T05:46:23.741Z,23.20
2019-02-10T05:48:55.957Z,23.20
2019-02-10T05:51:28.195Z,23.10
2019-02-10T05:54:01.577Z,23.00
2019-02-10T05:56:33.781Z,22.90
2019-02-10T05:59:06.316Z,22.90
2019-02-10T06:02:07.938Z,22.90
2019-02-10T06:04:42.869Z,22.80
2019-02-10T06:07:17.002Z,22.80
2019-02-10T06:09:49.268Z,22.80
2019-02-10T06:12:21.502Z,22.70
2019-02-10T06:14:53.696Z,22.70
2019-02-10T06:17:25.898Z,22.70
2019-02-10T06:19:58.295Z,22.60
2019-02-10T06:22:30.553Z,22.60
2019-02-10T06:25:02.916Z,22.60
2019-02-10T06:27:35.145Z,22.50
2019-02-10T06:30:09.651Z,22.70
2019-02-10T06:32:42.180Z,23.50
2019-02-10T06:35:14.490Z,24.40
2019-02-10T06:37:46.798Z,25.00
2019-02-10T06:40:19.192Z,25.50
2019-02-10T06:42:51.393Z,26.00
2019-02-10T06:45:23.601Z,26.30
2019-02-10T06:47:57.669Z,26.70
2019-02-10T06:50:29.629Z,26.80
2019-02-10T06:53:01.837Z,26.10
2019-02-10T06:55:34.027Z,25.50
2019-02-10T06:58:06.222Z,25.00
2019-02-10T07:00:40.322Z,24.60
2019-02-10T07:03:33.111Z,24.40
2019-02-10T07:06:05.922Z,24.20
2019-02-10T07:08:38.145Z,24.00
2019-02-10T07:11:10.437Z,23.90
2019-02-10T07:13:45.172Z,23.80
2019-02-10T07:16:46.688Z,23.70
2019-02-10T07:19:54.526Z,23.70
2019-02-10T07:22:43.990Z,23.50
2019-02-10T07:25:18.807Z,23.50
2019-02-10T07:28:06.979Z,23.40
2019-02-10T07:30:53.887Z,23.30
2019-02-10T07:33:43.498Z,23.20
2019-02-10T07:36:30.479Z,23.10
2019-02-10T07:39:19.897Z,23.00
2019-02-10T07:42:03.418Z,23.10
2019-02-10T07:44:50.055Z,24.00
2019-02-10T07:47:24.792Z,24.80
2019-02-10T07:50:15.925Z,25.50
2019-02-10T07:52:59.671Z,26.00
2019-02-10T07:55:34.343Z,26.00
2019-02-10T07:58:36.221Z,25.30
2019-02-10T08:01:23.204Z,24.80
2019-02-10T08:04:15.759Z,24.40
2019-02-10T08:07:09.230Z,24.10
2019-02-10T08:10:12.498Z,23.90
2019-02-10T08:13:06.525Z,23.70
2019-02-10T08:15:50.011Z,23.70
2019-02-10T08:18:27.457Z,23.60
2019-02-10T08:21:02.183Z,23.50
2019-02-10T08:23:37.871Z,23.40
2019-02-10T08:26:34.539Z,23.30
2019-02-10T08:29:11.917Z,23.20
2019-02-10T08:32:18.148Z,23.10
2019-02-10T08:35:07.910Z,23.10
2019-02-10T08:38:07.923Z,23.00
2019-02-10T08:40:54.358Z,22.90
2019-02-10T08:43:40.956Z,22.80
2019-02-10T08:46:33.560Z,22.80
2019-02-10T08:49:20.245Z,22.70
2019-02-10T08:51:57.990Z,22.70
2019-02-10T08:54:30.191Z,22.60
2019-02-10T08:57:02.492Z,22.50
2019-02-10T08:59:34.738Z,22.50
2019-02-10T09:02:07.369Z,22.40
2019-02-10T09:04:39.559Z,22.40
2019-02-10T09:07:11.929Z,22.30
2019-02-10T09:09:44.109Z,22.30
2019-02-10T09:12:16.284Z,22.20
2019-02-10T09:14:48.685Z,22.20
2019-02-10T09:17:20.975Z,22.10
2019-02-10T09:19:53.243Z,22.10
2019-02-10T09:22:25.527Z,22.10
2019-02-10T09:24:57.712Z,22.10
2019-02-10T09:27:29.904Z,22.10
2019-02-10T09:30:02.106Z,22.00
2019-02-10T09:32:34.497Z,22.00
2019-02-10T09:35:08.216Z,21.90
2019-02-10T09:37:40.680Z,21.90
2019-02-10T09:40:13.766Z,21.90
2019-02-10T09:42:46.040Z,21.90
2019-02-10T09:45:18.392Z,21.80
2019-02-10T09:47:50.670Z,21.80
2019-02-10T09:50:22.867Z,21.80
2019-02-10T09:52:55.048Z,21.80
2019-02-10T09:55:27.350Z,21.70
2019-02-10T09:57:59.618Z,21.70
2019-02-10T10:00:31.840Z,21.70
2019-02-10T10:03:04.409Z,21.70
2019-02-10T10:05:36.711Z,21.70
2019-02-10T10:08:09.233Z,21.60
2019-02-10T10:10:41.532Z,21.60
2019-02-10T10:13:13.728Z,21.60
2019-02-10T10:15:46.058Z,21.60
2019-02-10T10:18:18.699Z,21.50
2019-02-10T10:20:50.906Z,21.50
2019-02-10T10:23:23.085Z,21.50
2019-02-10T10:25:55.384Z,21.50
2019-02-10T10:28:27.601Z,21.50
2019-02-10T10:30:59.843Z,21.50
2019-02-10T10:33:32.251Z,21.40
2019-02-10T10:36:04.489Z,21.40
2019-02-10T10:38:36.868Z,21.40
2019-02-10T10:41:09.194Z,21.40
2019-02-10T10:43:41.402Z,21.40
2019-02-10T10:46:13.854Z,21.40
2019-02-10T10:48:46.196Z,21.40
2019-02-10T10:51:18.437Z,21.40
2019-02-10T10:53:50.733Z,21.40
2019-02-10T10:56:22.974Z,21.30
2019-02-10T10:58:55.190Z,21.30
2019-02-10T11:01:27.417Z,21.30
2019-02-10T11:03:59.975Z,21.30
2019-02-10T11:06:33.915Z,21.60
2019-02-10T11:09:06.750Z,22.30
2019-02-10T11:11:38.932Z,23.00
2019-02-10T11:14:11.099Z,23.70
2019-02-10T11:16:43.301Z,24.00
2019-02-10T11:19:15.469Z,23.40
2019-02-10T11:21:47.669Z,22.90
2019-02-10T11:24:19.849Z,22.50
2019-02-10T11:26:52.017Z,22.20
2019-02-10T11:29:24.394Z,22.00
2019-02-10T11:31:56.588Z,21.90
2019-02-10T11:34:29.353Z,21.80
2019-02-10T11:37:01.997Z,21.70
2019-02-10T11:39:34.489Z,21.60
2019-02-10T11:42:07.074Z,21.50
2019-02-10T11:44:39.248Z,21.40
2019-02-10T11:47:11.694Z,21.40
2019-02-10T11:49:43.861Z,21.30
2019-02-10T11:52:16.153Z,21.30
2019-02-10T11:54:48.545Z,21.20
2019-02-10T11:57:21.030Z,21.20
2019-02-10T11:59:53.392Z,21.20
2019-02-10T12:02:25.821Z,21.20
2019-02-10T12:04:58.348Z,21.10
2019-02-10T12:07:30.978Z,21.60
2019-02-10T12:10:03.531Z,22.40
2019-02-10T12:12:35.911Z,23.10
2019-02-10T12:15:10.816Z,23.70
2019-02-10T12:17:43.307Z,24.00
2019-02-10T12:20:17.428Z,23.50
2019-02-10T12:22:50.528Z,22.90
2019-02-10T12:25:24.023Z,22.60
2019-02-10T12:27:56.383Z,22.30
2019-02-10T12:30:28.826Z,22.10
2019-02-10T12:33:01.347Z,21.90
2019-02-10T12:35:33.748Z,21.80
2019-02-10T12:38:06.136Z,21.70
2019-02-10T12:40:39.281Z,21.60
2019-02-10T12:43:11.662Z,21.50
2019-02-10T12:45:44.485Z,21.40
2019-02-10T12:48:17.164Z,21.40
2019-02-10T12:50:49.544Z,21.30
2019-02-10T12:53:22.233Z,21.20
2019-02-10T12:55:54.582Z,21.20
2019-02-10T12:58:26.947Z,21.10
2019-02-10T13:00:59.451Z,21.10
2019-02-10T13:03:31.826Z,21.00
2019-02-10T13:06:04.456Z,21.00
2019-02-10T13:08:36.889Z,21.00
2019-02-10T13:11:09.414Z,21.00
2019-02-10T13:13:41.994Z,20.90
2019-02-10T13:16:14.357Z,20.90
2019-02-10T13:18:46.789Z,20.90
2019-02-10T13:21:19.315Z,20.90
2019-02-10T13:23:51.697Z,21.70
2019-02-10T13:26:24.151Z,22.50
2019-02-10T13:28:56.535Z,23.10
2019-02-10T13:31:28.870Z,23.70
2019-02-10T13:34:01.249Z,24.10
2019-02-10T13:36:33.639Z,23.50
2019-02-10T13:39:07.709Z,23.00
2019-02-10T13:41:39.124Z,22.60
2019-02-10T13:44:11.502Z,22.30
2019-02-10T13:46:44.000Z,22.00
2019-02-10T13:49:17.244Z,21.90
2019-02-10T13:51:50.648Z,22.50
2019-02-10T13:54:23.841Z,23.30
2019-02-10T13:56:56.347Z,23.90
2019-02-10T13:59:28.741Z,24.40
2019-02-10T14:02:01.090Z,24.80
2019-02-10T14:04:33.463Z,24.90
2019-02-10T14:07:06.370Z,24.30
2019-02-10T14:09:38.750Z,23.70
2019-02-10T14:12:11.190Z,23.20
2019-02-10T14:14:44.662Z,22.90
2019-02-10T14:17:17.127Z,22.70
2019-02-10T14:19:49.843Z,22.50
2019-02-10T14:22:22.366Z,22.30
2019-02-10T14:24:54.835Z,22.20
2019-02-10T14:27:27.177Z,22.80
2019-02-10T14:29:59.645Z,23.60
2019-02-10T14:32:32.098Z,24.20
2019-02-10T14:35:04.666Z,24.80
2019-02-10T14:37:37.038Z,25.20
2019-02-10T14:40:09.859Z,25.20
2019-02-10T14:42:42.281Z,24.50
2019-02-10T14:45:16.430Z,23.90
2019-02-10T14:47:48.800Z,23.50
2019-02-10T14:50:21.359Z,23.10
2019-02-10T14:52:53.993Z,22.90
2019-02-10T14:55:26.353Z,22.70
2019-02-10T14:57:58.697Z,22.60
2019-02-10T15:00:31.108Z,22.50
2019-02-10T15:03:03.486Z,22.30
2019-02-10T15:05:35.896Z,22.20
2019-02-10T15:08:08.449Z,22.80
2019-02-10T15:10:42.211Z,23.60
2019-02-10T15:13:14.689Z,24.20
2019-02-10T15:15:47.081Z,24.70
2019-02-10T15:18:19.555Z,24.90
2019-02-10T15:20:52.143Z,24.30
2019-02-10T15:23:24.787Z,23.80
2019-02-10T15:25:57.138Z,23.30
2019-02-10T15:28:29.529Z,23.00
2019-02-10T15:31:01.888Z,22.80
2019-02-10T15:33:34.451Z,22.70
2019-02-10T15:36:06.985Z,22.50
2019-02-10T15:38:39.385Z,22.40
2019-02-10T15:41:11.750Z,22.20
2019-02-10T15:43:44.121Z,22.10
2019-02-10T15:46:16.462Z,22.00
2019-02-10T15:48:49.496Z,22.10
2019-02-10T15:51:31.422Z,22.90
2019-02-10T15:53:55.972Z,23.70
2019-02-10T15:56:28.441Z,24.30
2019-02-10T15:59:00.921Z,24.80
2019-02-10T16:01:33.504Z,25.10
2019-02-10T16:04:05.972Z,24.60
2019-02-10T16:06:38.468Z,24.00
2019-02-10T16:09:11.650Z,23.50
2019-02-10T16:11:44.221Z,23.20
2019-02-10T16:14:16.617Z,22.90
2019-02-10T16:16:49.057Z,22.80
2019-02-10T16:19:21.418Z,22.60
2019-02-10T16:21:53.886Z,22.50
2019-02-10T16:24:26.522Z,22.40
2019-02-10T16:26:59.001Z,22.20
2019-02-10T16:29:31.513Z,22.10
2019-02-10T16:32:03.895Z,22.00
2019-02-10T16:34:36.375Z,22.00
2019-02-10T16:37:08.899Z,22.70
2019-02-10T16:39:41.474Z,23.40
2019-02-10T16:42:13.881Z,24.10
2019-02-10T16:44:46.271Z,24.60
2019-02-10T16:47:18.734Z,24.80
2019-02-10T16:49:51.314Z,24.20
2019-02-10T16:52:24.052Z,23.70
2019-02-10T16:54:56.676Z,23.30
2019-02-10T16:57:29.183Z,22.90
2019-02-10T17:00:01.782Z,22.80
2019-02-10T17:02:34.433Z,22.70
2019-02-10T17:05:07.678Z,22.50
2019-02-10T17:07:40.205Z,22.40
2019-02-10T17:10:15.999Z,22.30
2019-02-10T17:12:48.350Z,22.20
2019-02-10T17:15:20.948Z,22.10
2019-02-10T17:17:53.266Z,22.00
2019-02-10T17:20:25.781Z,22.00
2019-02-10T17:22:58.148Z,21.90
2019-02-10T17:25:31.501Z,22.60
2019-02-10T17:28:03.957Z,23.40
2019-02-10T17:30:36.370Z,24.00
2019-02-10T17:33:08.869Z,24.60
2019-02-10T17:35:42.544Z,25.10
2019-02-10T17:38:15.119Z,25.50
2019-02-10T17:40:52.800Z,25.90
2019-02-10T17:43:28.303Z,25.60
2019-02-10T17:45:59.085Z,25.00
2019-02-10T17:48:31.493Z,24.50
2019-02-10T17:51:04.342Z,24.10
2019-02-10T17:53:36.912Z,23.90
2019-02-10T17:56:09.550Z,23.70
2019-02-10T17:58:41.929Z,23.60
2019-02-10T18:01:14.644Z,23.50
2019-02-10T18:03:47.004Z,23.40
2019-02-10T18:06:19.388Z,23.20
2019-02-10T18:08:51.850Z,23.10
2019-02-10T18:11:30.851Z,22.90
2019-02-10T18:13:58.462Z,22.90
2019-02-10T18:16:37.933Z,22.70
2019-02-10T18:19:18.123Z,22.60
2019-02-10T18:21:54.898Z,22.50
2019-02-10T18:24:31.927Z,22.40
2019-02-10T18:27:12.077Z,22.30
2019-02-10T18:29:57.440Z,22.30
2019-02-10T18:32:46.173Z,22.30
2019-02-10T18:35:19.718Z,22.20
2019-02-10T18:37:56.335Z,22.10
2019-02-10T18:40:32.383Z,22.10
2019-02-10T18:43:08.626Z,22.00
2019-02-10T18:45:41.328Z,22.00
2019-02-10T18:48:30.659Z,22.00
2019-02-10T18:51:07.036Z,22.00
2019-02-10T18:53:46.598Z,21.90
2019-02-10T18:56:20.377Z,21.90
2019-02-10T18:59:02.986Z,21.90
2019-02-10T19:01:52.588Z,21.90
2019-02-10T19:04:26.190Z,22.00
2019-02-10T19:07:14.013Z,22.00
2019-02-10T19:09:47.663Z,22.10
2019-02-10T19:12:28.409Z,22.10
2019-02-10T19:15:07.749Z,22.10
2019-02-10T19:17:44.067Z,22.20
2019-02-10T19:20:33.565Z,22.20
2019-02-10T19:23:24.193Z,22.10
2019-02-10T19:26:00.285Z,22.10
2019-02-10T19:28:34.836Z,22.10
2019-02-10T19:31:11.586Z,22.00
2019-02-10T19:33:45.226Z,22.00
2019-02-10T19:36:34.782Z,22.00
2019-02-10T19:39:24.970Z,22.00
2019-02-10T19:41:58.596Z,22.10
2019-02-10T19:44:35.176Z,22.10
2019-02-10T19:47:11.293Z,22.10
2019-02-10T19:49:47.621Z,22.20
2019-02-10T19:52:21.221Z,22.20
2019-02-10T19:54:57.481Z,22.30
2019-02-10T19:57:40.013Z,22.30
2019-02-10T20:00:32.067Z,22.40
2019-02-10T20:03:06.313Z,22.50
2019-02-10T20:05:43.128Z,22.40
2019-02-10T20:08:19.888Z,22.50
2019-02-10T20:11:02.601Z,22.50
2019-02-10T20:13:36.654Z,22.50
2019-02-10T20:16:19.397Z,22.60
2019-02-10T20:18:52.992Z,22.60
2019-02-10T20:21:26.565Z,22.60
2019-02-10T20:24:16.356Z,22.70
2019-02-10T20:26:50.008Z,22.70
2019-02-10T20:29:32.800Z,22.70
2019-02-10T20:32:09.166Z,22.80
2019-02-10T20:34:42.765Z,22.80
2019-02-10T20:37:22.835Z,22.90
2019-02-10T20:39:58.934Z,22.80
2019-02-10T20:42:32.494Z,22.90
2019-02-10T20:45:22.413Z,22.90
2019-02-10T20:47:55.945Z,23.00
2019-02-10T20:50:45.522Z,23.10
2019-02-10T20:53:19.098Z,23.10
2019-02-10T20:56:02.239Z,23.10
2019-02-10T20:58:46.220Z,23.20
2019-02-10T21:01:25.717Z,23.20
2019-02-10T21:04:00.301Z,23.20
2019-02-10T21:06:49.870Z,23.10
2019-02-10T21:09:23.513Z,23.10
2019-02-10T21:11:59.915Z,23.10
2019-02-10T21:14:43.322Z,23.20
2019-02-10T21:17:16.938Z,23.20
2019-02-10T21:20:02.975Z,23.10
2019-02-10T21:22:36.855Z,23.20
2019-02-10T21:25:27.254Z,23.20
2019-02-10T21:28:00.849Z,23.20
2019-02-10T21:30:50.918Z,23.20
2019-02-10T21:33:40.128Z,23.20
2019-02-10T21:36:29.313Z,23.30
2019-02-10T21:39:02.876Z,23.40
2019-02-10T21:41:37.808Z,23.40
2019-02-10T21:44:15.257Z,23.40
2019-02-10T21:46:48.816Z,23.40
2019-02-10T21:49:21.147Z,23.40
2019-02-10T21:51:53.438Z,23.40
2019-02-10T21:54:25.740Z,23.50
2019-02-10T21:56:58.097Z,23.50
2019-02-10T21:59:30.323Z,23.60
2019-02-10T22:02:02.674Z,23.60
2019-02-10T22:04:36.202Z,23.70
2019-02-10T22:07:08.375Z,23.70
2019-02-10T22:09:40.580Z,23.70
2019-02-10T22:12:12.769Z,23.80
2019-02-10T22:14:45.318Z,23.80
2019-02-10T22:17:17.661Z,23.80
2019-02-10T22:19:50.518Z,23.80
2019-02-10T22:22:22.874Z,23.80
2019-02-10T22:24:55.104Z,23.80
2019-02-10T22:27:27.806Z,23.80
2019-02-10T22:30:00.099Z,23.70
2019-02-10T22:32:32.516Z,23.70
2019-02-10T22:35:06.278Z,23.70
2019-02-10T22:37:38.575Z,23.70
2019-02-10T22:40:12.734Z,23.70
2019-02-10T22:42:46.006Z,23.70
2019-02-10T22:45:18.773Z,23.70
2019-02-10T22:47:50.958Z,23.60
2019-02-10T22:50:23.290Z,23.60
2019-02-10T22:52:55.580Z,23.60
2019-02-10T22:55:27.921Z,23.60
2019-02-10T22:58:00.268Z,23.60
2019-02-10T23:00:51.427Z,23.50
2019-02-10T23:03:24.009Z,23.50
2019-02-10T23:05:56.268Z,23.40
2019-02-10T23:08:28.571Z,23.40
2019-02-10T23:11:01.088Z,23.30
2019-02-10T23:13:33.398Z,23.30
2019-02-10T23:16:06.377Z,23.20
2019-02-10T23:18:38.695Z,23.20
2019-02-10T23:21:10.907Z,23.20
2019-02-10T23:23:43.409Z,23.20
2019-02-10T23:26:16.204Z,23.20
2019-02-10T23:28:48.374Z,23.10
2019-02-10T23:31:20.685Z,23.10
2019-02-10T23:33:53.277Z,23.10
2019-02-10T23:36:25.614Z,23.00
2019-02-10T23:38:58.000Z,23.00
2019-02-10T23:41:30.502Z,23.00
2019-02-10T23:44:02.986Z,22.90
2019-02-10T23:46:35.370Z,23.00
2019-02-10T23:49:07.742Z,22.90
2019-02-10T23:51:39.961Z,22.90
2019-02-10T23:54:12.520Z,22.90
2019-02-10T23:56:47.286Z,22.90
2019-02-10T23:59:20.044Z,22.80
